sensor_id;sensor_type;location;lat;lon;timestamp;temperature;humidity
13464;DHT22;6804;48.774;9.174;2023-08-24T00:00:37;24.00;99.90
13464;DHT22;6804;48.774;9.174;2023-08-24T00:03:06;23.90;99.90
13464;DHT22;6804;48.774;9.174;2023-08-24T00:05:38;23.90;99.90
13464;DHT22;6804;48.774;9.174;2023-08-24T00:08:06;23.90;99.90
13464;DHT22;6804;48.774;9.174;2023-08-24T00:10:35;23.90;99.90
13464;DHT22;6804;48.774;9.174;2023-08-24T00:13:28;23.90;99.90
13464;DHT22;6804;48.774;9.174;2023-08-24T00:15:59;24.00;99.90
13464;DHT22;6804;48.774;9.174;2023-08-24T00:18:26;24.00;99.90
13464;DHT22;6804;48.774;9.174;2023-08-24T00:20:56;24.00;99.90
13464;DHT22;6804;48.774;9.174;2023-08-24T00:23:25;24.00;99.90
13464;DHT22;6804;48.774;9.174;2023-08-24T00:25:55;23.90;99.90
13464;DHT22;6804;48.774;9.174;2023-08-24T00:28:23;23.70;99.90
13464;DHT22;6804;48.774;9.174;2023-08-24T00:30:52;23.60;99.90
13464;DHT22;6804;48.774;9.174;2023-08-24T00:33:27;23.50;99.90
13464;DHT22;6804;48.774;9.174;2023-08-24T00:36:00;23.50;99.90
13464;DHT22;6804;48.774;9.174;2023-08-24T00:38:28;23.50;99.90
13464;DHT22;6804;48.774;9.174;2023-08-24T00:40:56;23.50;99.90
13464;DHT22;6804;48.774;9.174;2023-08-24T00:43:26;23.40;99.90
13464;DHT22;6804;48.774;9.174;2023-08-24T00:45:57;23.30;99.90
13464;DHT22;6804;48.774;9.174;2023-08-24T00:48:27;23.30;99.90
13464;DHT22;6804;48.774;9.174;2023-08-24T00:51:00;23.30;99.90
13464;DHT22;6804;48.774;9.174;2023-08-24T00:53:30;23.30;99.90
13464;DHT22;6804;48.774;9.174;2023-08-24T00:55:58;23.30;99.90
13464;DHT22;6804;48.774;9.174;2023-08-24T00:58:27;23.30;99.90
13464;DHT22;6804;48.774;9.174;2023-08-24T01:00:58;23.30;99.90
13464;DHT22;6804;48.774;9.174;2023-08-24T01:03:27;23.30;99.90
13464;DHT22;6804;48.774;9.174;2023-08-24T01:05:55;23.30;99.90
13464;DHT22;6804;48.774;9.174;2023-08-24T01:08:28;23.20;99.90
13464;DHT22;6804;48.774;9.174;2023-08-24T01:11:06;23.10;99.90
13464;DHT22;6804;48.774;9.174;2023-08-24T01:13:47;23.10;99.90
13464;DHT22;6804;48.774;9.174;2023-08-24T01:16:24;23.10;99.90
13464;DHT22;6804;48.774;9.174;2023-08-24T01:18:57;23.20;99.90
13464;DHT22;6804;48.774;9.174;2023-08-24T01:21:31;23.20;99.90
13464;DHT22;6804;48.774;9.174;2023-08-24T01:24:13;23.30;99.90
13464;DHT22;6804;48.774;9.174;2023-08-24T01:26:44;23.30;99.90
13464;DHT22;6804;48.774;9.174;2023-08-24T01:29:19;23.30;99.90
13464;DHT22;6804;48.774;9.174;2023-08-24T01:31:48;23.30;99.90
13464;DHT22;6804;48.774;9.174;2023-08-24T01:34:20;23.30;99.90
13464;DHT22;6804;48.774;9.174;2023-08-24T01:36:49;23.20;99.90
13464;DHT22;6804;48.774;9.174;2023-08-24T01:39:26;23.20;99.90
13464;DHT22;6804;48.774;9.174;2023-08-24T01:42:02;23.20;99.90
13464;DHT22;6804;48.774;9.174;2023-08-24T01:44:40;23.20;99.90
13464;DHT22;6804;48.774;9.174;2023-08-24T01:47:09;23.20;99.90
13464;DHT22;6804;48.774;9.174;2023-08-24T01:49:40;23.10;99.90
13464;DHT22;6804;48.774;9.174;2023-08-24T01:52:10;23.00;99.90
13464;DHT22;6804;48.774;9.174;2023-08-24T01:54:39;23.00;99.90
13464;DHT22;6804;48.774;9.174;2023-08-24T01:57:10;22.90;99.90
13464;DHT22;6804;48.774;9.174;2023-08-24T01:59:38;22.90;99.90
13464;DHT22;6804;48.774;9.174;2023-08-24T02:02:08;22.90;99.90
13464;DHT22;6804;48.774;9.174;2023-08-24T02:04:36;23.00;99.90
13464;DHT22;6804;48.774;9.174;2023-08-24T02:07:06;22.90;99.90
13464;DHT22;6804;48.774;9.174;2023-08-24T02:09:42;23.00;99.90
13464;DHT22;6804;48.774;9.174;2023-08-24T02:12:13;23.00;99.90
13464;DHT22;6804;48.774;9.174;2023-08-24T02:14:43;23.00;99.90
13464;DHT22;6804;48.774;9.174;2023-08-24T02:17:10;23.00;99.90
13464;DHT22;6804;48.774;9.174;2023-08-24T02:19:38;23.00;99.90
13464;DHT22;6804;48.774;9.174;2023-08-24T02:22:09;23.10;99.90
13464;DHT22;6804;48.774;9.174;2023-08-24T02:24:36;23.10;99.90
13464;DHT22;6804;48.774;9.174;2023-08-24T02:27:06;23.10;99.90
13464;DHT22;6804;48.774;9.174;2023-08-24T02:29:35;23.10;99.90
13464;DHT22;6804;48.774;9.174;2023-08-24T02:32:04;23.10;99.90
13464;DHT22;6804;48.774;9.174;2023-08-24T02:34:31;23.20;99.90
13464;DHT22;6804;48.774;9.174;2023-08-24T02:37:02;23.20;99.90
13464;DHT22;6804;48.774;9.174;2023-08-24T02:39:32;23.20;99.90
13464;DHT22;6804;48.774;9.174;2023-08-24T02:41:59;23.20;99.90
13464;DHT22;6804;48.774;9.174;2023-08-24T02:44:29;23.20;99.90
13464;DHT22;6804;48.774;9.174;2023-08-24T02:46:58;23.10;99.90
13464;DHT22;6804;48.774;9.174;2023-08-24T02:49:26;23.00;99.90
13464;DHT22;6804;48.774;9.174;2023-08-24T02:51:53;23.00;99.90
13464;DHT22;6804;48.774;9.174;2023-08-24T02:54:23;22.90;99.90
13464;DHT22;6804;48.774;9.174;2023-08-24T02:56:50;22.90;99.90
13464;DHT22;6804;48.774;9.174;2023-08-24T02:59:18;22.80;99.90
13464;DHT22;6804;48.774;9.174;2023-08-24T03:01:46;22.80;99.90
13464;DHT22;6804;48.774;9.174;2023-08-24T03:04:14;22.80;99.90
13464;DHT22;6804;48.774;9.174;2023-08-24T03:06:43;22.70;99.90
13464;DHT22;6804;48.774;9.174;2023-08-24T03:09:13;22.60;99.90
13464;DHT22;6804;48.774;9.174;2023-08-24T03:11:43;22.60;99.90
13464;DHT22;6804;48.774;9.174;2023-08-24T03:14:10;22.70;99.90
13464;DHT22;6804;48.774;9.174;2023-08-24T03:16:38;22.60;99.90
13464;DHT22;6804;48.774;9.174;2023-08-24T03:19:15;22.50;99.90
13464;DHT22;6804;48.774;9.174;2023-08-24T03:21:43;22.60;99.90
13464;DHT22;6804;48.774;9.174;2023-08-24T03:24:11;22.50;99.90
13464;DHT22;6804;48.774;9.174;2023-08-24T03:26:41;22.50;99.90
13464;DHT22;6804;48.774;9.174;2023-08-24T03:29:11;22.50;99.90
13464;DHT22;6804;48.774;9.174;2023-08-24T03:31:41;22.50;99.90
13464;DHT22;6804;48.774;9.174;2023-08-24T03:34:11;22.50;99.90
13464;DHT22;6804;48.774;9.174;2023-08-24T03:36:42;22.50;99.90
13464;DHT22;6804;48.774;9.174;2023-08-24T03:39:12;22.50;99.90
13464;DHT22;6804;48.774;9.174;2023-08-24T03:41:42;22.40;99.90
13464;DHT22;6804;48.774;9.174;2023-08-24T03:44:12;22.30;99.90
13464;DHT22;6804;48.774;9.174;2023-08-24T03:46:42;22.30;99.90
13464;DHT22;6804;48.774;9.174;2023-08-24T03:49:13;22.30;99.90
13464;DHT22;6804;48.774;9.174;2023-08-24T03:51:44;22.30;99.90
13464;DHT22;6804;48.774;9.174;2023-08-24T03:54:14;22.40;99.90
13464;DHT22;6804;48.774;9.174;2023-08-24T03:56:44;22.50;99.90
13464;DHT22;6804;48.774;9.174;2023-08-24T03:59:14;22.50;99.90
13464;DHT22;6804;48.774;9.174;2023-08-24T04:01:42;22.60;99.90
13464;DHT22;6804;48.774;9.174;2023-08-24T04:04:15;22.70;99.90
13464;DHT22;6804;48.774;9.174;2023-08-24T04:06:46;22.70;99.90
13464;DHT22;6804;48.774;9.174;2023-08-24T04:09:15;22.80;99.90
13464;DHT22;6804;48.774;9.174;2023-08-24T04:11:42;22.80;99.90
13464;DHT22;6804;48.774;9.174;2023-08-24T04:14:15;22.60;99.90
13464;DHT22;6804;48.774;9.174;2023-08-24T04:16:44;22.60;99.90
13464;DHT22;6804;48.774;9.174;2023-08-24T04:19:16;22.50;99.90
13464;DHT22;6804;48.774;9.174;2023-08-24T04:22:04;22.50;99.90
13464;DHT22;6804;48.774;9.174;2023-08-24T04:24:32;22.50;99.90
13464;DHT22;6804;48.774;9.174;2023-08-24T04:26:59;22.50;99.90
13464;DHT22;6804;48.774;9.174;2023-08-24T04:29:27;22.40;99.90
13464;DHT22;6804;48.774;9.174;2023-08-24T04:31:55;22.40;99.90
13464;DHT22;6804;48.774;9.174;2023-08-24T04:34:23;22.40;99.90
13464;DHT22;6804;48.774;9.174;2023-08-24T04:36:53;22.40;99.90
13464;DHT22;6804;48.774;9.174;2023-08-24T04:39:23;22.40;99.90
13464;DHT22;6804;48.774;9.174;2023-08-24T04:41:51;22.40;99.90
13464;DHT22;6804;48.774;9.174;2023-08-24T04:44:19;22.30;99.90
13464;DHT22;6804;48.774;9.174;2023-08-24T04:46:46;22.30;99.90
13464;DHT22;6804;48.774;9.174;2023-08-24T04:49:15;22.20;99.90
13464;DHT22;6804;48.774;9.174;2023-08-24T04:51:46;22.20;99.90
13464;DHT22;6804;48.774;9.174;2023-08-24T04:54:14;22.30;99.90
13464;DHT22;6804;48.774;9.174;2023-08-24T04:56:43;22.30;99.90
13464;DHT22;6804;48.774;9.174;2023-08-24T04:59:12;22.40;99.90
13464;DHT22;6804;48.774;9.174;2023-08-24T05:01:40;22.40;99.90
13464;DHT22;6804;48.774;9.174;2023-08-24T05:04:08;22.50;99.90
13464;DHT22;6804;48.774;9.174;2023-08-24T05:06:36;22.50;99.90
13464;DHT22;6804;48.774;9.174;2023-08-24T05:09:09;22.60;99.90
13464;DHT22;6804;48.774;9.174;2023-08-24T05:11:39;22.50;99.90
13464;DHT22;6804;48.774;9.174;2023-08-24T05:14:11;22.50;99.90
13464;DHT22;6804;48.774;9.174;2023-08-24T05:16:41;22.50;99.90
13464;DHT22;6804;48.774;9.174;2023-08-24T05:19:11;22.40;99.90
13464;DHT22;6804;48.774;9.174;2023-08-24T05:21:41;22.30;99.90
13464;DHT22;6804;48.774;9.174;2023-08-24T05:24:11;22.20;99.90
13464;DHT22;6804;48.774;9.174;2023-08-24T05:26:38;22.30;99.90
13464;DHT22;6804;48.774;9.174;2023-08-24T05:29:10;22.40;99.90
13464;DHT22;6804;48.774;9.174;2023-08-24T05:31:38;22.50;99.90
13464;DHT22;6804;48.774;9.174;2023-08-24T05:34:08;22.60;99.90
13464;DHT22;6804;48.774;9.174;2023-08-24T05:36:36;22.70;99.90
13464;DHT22;6804;48.774;9.174;2023-08-24T05:39:23;22.80;99.90
13464;DHT22;6804;48.774;9.174;2023-08-24T05:41:53;22.80;99.90
13464;DHT22;6804;48.774;9.174;2023-08-24T05:44:27;22.80;99.90
13464;DHT22;6804;48.774;9.174;2023-08-24T05:46:58;22.80;99.90
13464;DHT22;6804;48.774;9.174;2023-08-24T05:49:26;22.80;99.90
13464;DHT22;6804;48.774;9.174;2023-08-24T05:51:57;22.70;99.90
13464;DHT22;6804;48.774;9.174;2023-08-24T05:54:25;22.60;99.90
13464;DHT22;6804;48.774;9.174;2023-08-24T05:56:57;22.50;99.90
13464;DHT22;6804;48.774;9.174;2023-08-24T05:59:32;22.50;99.90
13464;DHT22;6804;48.774;9.174;2023-08-24T06:02:02;22.50;99.90
13464;DHT22;6804;48.774;9.174;2023-08-24T06:04:31;22.50;99.90
13464;DHT22;6804;48.774;9.174;2023-08-24T06:06:59;22.60;99.90
13464;DHT22;6804;48.774;9.174;2023-08-24T06:09:28;22.70;99.90
13464;DHT22;6804;48.774;9.174;2023-08-24T06:11:56;22.80;99.90
13464;DHT22;6804;48.774;9.174;2023-08-24T06:14:27;22.90;99.90
13464;DHT22;6804;48.774;9.174;2023-08-24T06:16:59;23.00;99.90
13464;DHT22;6804;48.774;9.174;2023-08-24T06:19:28;23.10;99.90
13464;DHT22;6804;48.774;9.174;2023-08-24T06:22:01;23.30;99.90
13464;DHT22;6804;48.774;9.174;2023-08-24T06:24:29;23.40;99.90
13464;DHT22;6804;48.774;9.174;2023-08-24T06:26:57;23.50;99.90
13464;DHT22;6804;48.774;9.174;2023-08-24T06:29:29;23.50;99.90
13464;DHT22;6804;48.774;9.174;2023-08-24T06:31:57;23.60;99.90
13464;DHT22;6804;48.774;9.174;2023-08-24T06:34:25;23.70;99.90
13464;DHT22;6804;48.774;9.174;2023-08-24T06:36:53;23.80;99.90
13464;DHT22;6804;48.774;9.174;2023-08-24T06:39:24;23.80;99.90
13464;DHT22;6804;48.774;9.174;2023-08-24T06:41:56;23.90;99.90
13464;DHT22;6804;48.774;9.174;2023-08-24T06:44:28;23.90;99.90
13464;DHT22;6804;48.774;9.174;2023-08-24T06:46:57;24.00;99.90
13464;DHT22;6804;48.774;9.174;2023-08-24T06:49:26;24.00;99.90
13464;DHT22;6804;48.774;9.174;2023-08-24T06:51:55;24.10;99.90
13464;DHT22;6804;48.774;9.174;2023-08-24T06:54:23;24.10;99.90
13464;DHT22;6804;48.774;9.174;2023-08-24T06:56:54;24.20;99.90
13464;DHT22;6804;48.774;9.174;2023-08-24T06:59:22;24.20;99.90
13464;DHT22;6804;48.774;9.174;2023-08-24T07:01:52;24.20;99.90
13464;DHT22;6804;48.774;9.174;2023-08-24T07:04:21;24.20;99.90
13464;DHT22;6804;48.774;9.174;2023-08-24T07:06:52;24.20;99.90
13464;DHT22;6804;48.774;9.174;2023-08-24T07:09:23;24.20;99.90
13464;DHT22;6804;48.774;9.174;2023-08-24T07:11:51;24.10;99.90
13464;DHT22;6804;48.774;9.174;2023-08-24T07:14:20;24.10;99.90
13464;DHT22;6804;48.774;9.174;2023-08-24T07:16:52;24.20;99.90
13464;DHT22;6804;48.774;9.174;2023-08-24T07:19:22;24.00;99.90
13464;DHT22;6804;48.774;9.174;2023-08-24T07:21:51;24.00;99.90
13464;DHT22;6804;48.774;9.174;2023-08-24T07:24:18;24.00;99.90
13464;DHT22;6804;48.774;9.174;2023-08-24T07:26:48;23.90;99.90
13464;DHT22;6804;48.774;9.174;2023-08-24T07:29:19;23.80;99.90
13464;DHT22;6804;48.774;9.174;2023-08-24T07:31:51;23.80;99.90
13464;DHT22;6804;48.774;9.174;2023-08-24T07:34:23;24.00;99.90
13464;DHT22;6804;48.774;9.174;2023-08-24T07:36:53;24.30;99.90
13464;DHT22;6804;48.774;9.174;2023-08-24T07:39:23;24.50;99.90
13464;DHT22;6804;48.774;9.174;2023-08-24T07:41:52;24.70;99.90
13464;DHT22;6804;48.774;9.174;2023-08-24T07:44:20;24.90;99.90
13464;DHT22;6804;48.774;9.174;2023-08-24T07:46:52;25.00;99.90
13464;DHT22;6804;48.774;9.174;2023-08-24T07:49:23;25.10;99.90
13464;DHT22;6804;48.774;9.174;2023-08-24T07:52:10;25.00;99.90
13464;DHT22;6804;48.774;9.174;2023-08-24T07:54:39;25.20;99.90
13464;DHT22;6804;48.774;9.174;2023-08-24T07:57:26;25.30;99.90
13464;DHT22;6804;48.774;9.174;2023-08-24T08:00:00;25.50;99.90
13464;DHT22;6804;48.774;9.174;2023-08-24T08:02:31;25.60;99.90
13464;DHT22;6804;48.774;9.174;2023-08-24T08:05:00;25.70;99.90
13464;DHT22;6804;48.774;9.174;2023-08-24T08:07:32;25.50;99.90
13464;DHT22;6804;48.774;9.174;2023-08-24T08:10:00;25.40;99.90
13464;DHT22;6804;48.774;9.174;2023-08-24T08:12:31;25.60;99.90
13464;DHT22;6804;48.774;9.174;2023-08-24T08:15:03;25.60;99.90
13464;DHT22;6804;48.774;9.174;2023-08-24T08:17:32;25.50;99.90
13464;DHT22;6804;48.774;9.174;2023-08-24T08:20:02;25.40;99.90
13464;DHT22;6804;48.774;9.174;2023-08-24T08:22:32;25.20;99.90
13464;DHT22;6804;48.774;9.174;2023-08-24T08:25:05;25.10;99.90
13464;DHT22;6804;48.774;9.174;2023-08-24T08:27:33;25.30;99.90
13464;DHT22;6804;48.774;9.174;2023-08-24T08:30:04;25.30;99.90
13464;DHT22;6804;48.774;9.174;2023-08-24T08:32:33;25.70;99.90
13464;DHT22;6804;48.774;9.174;2023-08-24T08:35:05;26.10;99.90
13464;DHT22;6804;48.774;9.174;2023-08-24T08:37:34;26.60;99.90
13464;DHT22;6804;48.774;9.174;2023-08-24T08:40:03;26.60;99.90
13464;DHT22;6804;48.774;9.174;2023-08-24T08:42:34;26.80;99.90
13464;DHT22;6804;48.774;9.174;2023-08-24T08:45:09;27.20;99.90
13464;DHT22;6804;48.774;9.174;2023-08-24T08:47:40;27.60;98.80
13464;DHT22;6804;48.774;9.174;2023-08-24T08:50:09;27.40;98.80
13464;DHT22;6804;48.774;9.174;2023-08-24T08:52:38;27.50;98.70
13464;DHT22;6804;48.774;9.174;2023-08-24T08:55:10;27.50;99.20
13464;DHT22;6804;48.774;9.174;2023-08-24T08:57:39;27.80;98.60
13464;DHT22;6804;48.774;9.174;2023-08-24T09:00:11;28.00;98.60
13464;DHT22;6804;48.774;9.174;2023-08-24T09:02:45;28.20;97.90
13464;DHT22;6804;48.774;9.174;2023-08-24T09:05:21;28.40;97.30
13464;DHT22;6804;48.774;9.174;2023-08-24T09:07:54;28.40;97.60
13464;DHT22;6804;48.774;9.174;2023-08-24T09:10:23;28.60;97.70
13464;DHT22;6804;48.774;9.174;2023-08-24T09:12:52;28.80;97.40
13464;DHT22;6804;48.774;9.174;2023-08-24T09:15:31;29.10;96.80
13464;DHT22;6804;48.774;9.174;2023-08-24T09:18:04;29.10;96.20
13464;DHT22;6804;48.774;9.174;2023-08-24T09:20:34;28.70;96.70
13464;DHT22;6804;48.774;9.174;2023-08-24T09:23:04;28.60;96.80
13464;DHT22;6804;48.774;9.174;2023-08-24T09:25:45;28.80;96.90
13464;DHT22;6804;48.774;9.174;2023-08-24T09:28:13;28.90;96.50
13464;DHT22;6804;48.774;9.174;2023-08-24T09:30:45;29.10;96.50
13464;DHT22;6804;48.774;9.174;2023-08-24T09:33:15;29.40;96.00
13464;DHT22;6804;48.774;9.174;2023-08-24T09:35:44;29.60;95.80
13464;DHT22;6804;48.774;9.174;2023-08-24T09:38:17;29.80;95.70
13464;DHT22;6804;48.774;9.174;2023-08-24T09:40:46;30.00;95.00
13464;DHT22;6804;48.774;9.174;2023-08-24T09:43:15;30.20;95.30
13464;DHT22;6804;48.774;9.174;2023-08-24T09:45:52;30.40;95.40
13464;DHT22;6804;48.774;9.174;2023-08-24T09:48:25;30.50;94.60
13464;DHT22;6804;48.774;9.174;2023-08-24T09:50:54;30.50;94.40
13464;DHT22;6804;48.774;9.174;2023-08-24T09:53:24;30.60;94.80
13464;DHT22;6804;48.774;9.174;2023-08-24T09:56:00;30.40;94.60
13464;DHT22;6804;48.774;9.174;2023-08-24T09:58:29;30.30;94.60
13464;DHT22;6804;48.774;9.174;2023-08-24T10:00:57;30.50;94.90
13464;DHT22;6804;48.774;9.174;2023-08-24T10:03:27;30.70;94.80
13464;DHT22;6804;48.774;9.174;2023-08-24T10:05:56;30.90;94.30
13464;DHT22;6804;48.774;9.174;2023-08-24T10:08:29;31.10;94.20
13464;DHT22;6804;48.774;9.174;2023-08-24T10:10:57;30.90;94.00
13464;DHT22;6804;48.774;9.174;2023-08-24T10:13:39;31.00;94.40
13464;DHT22;6804;48.774;9.174;2023-08-24T10:16:08;31.20;94.30
13464;DHT22;6804;48.774;9.174;2023-08-24T10:18:40;31.20;94.20
13464;DHT22;6804;48.774;9.174;2023-08-24T10:21:10;31.20;94.10
13464;DHT22;6804;48.774;9.174;2023-08-24T10:23:39;31.10;94.30
13464;DHT22;6804;48.774;9.174;2023-08-24T10:26:07;31.20;94.40
13464;DHT22;6804;48.774;9.174;2023-08-24T10:28:36;31.30;94.00
13464;DHT22;6804;48.774;9.174;2023-08-24T10:31:08;31.30;93.90
13464;DHT22;6804;48.774;9.174;2023-08-24T10:33:40;31.30;94.20
13464;DHT22;6804;48.774;9.174;2023-08-24T10:36:13;31.40;94.30
13464;DHT22;6804;48.774;9.174;2023-08-24T10:38:42;31.60;94.10
13464;DHT22;6804;48.774;9.174;2023-08-24T10:41:15;31.70;94.00
13464;DHT22;6804;48.774;9.174;2023-08-24T10:43:49;31.90;94.00
13464;DHT22;6804;48.774;9.174;2023-08-24T10:46:17;32.00;94.30
13464;DHT22;6804;48.774;9.174;2023-08-24T10:48:59;32.10;93.80
13464;DHT22;6804;48.774;9.174;2023-08-24T10:51:29;32.30;93.80
13464;DHT22;6804;48.774;9.174;2023-08-24T10:53:59;32.40;93.60
13464;DHT22;6804;48.774;9.174;2023-08-24T10:56:33;32.20;93.80
13464;DHT22;6804;48.774;9.174;2023-08-24T10:59:13;32.20;94.30
13464;DHT22;6804;48.774;9.174;2023-08-24T11:01:43;32.40;94.00
13464;DHT22;6804;48.774;9.174;2023-08-24T11:04:24;32.60;93.90
13464;DHT22;6804;48.774;9.174;2023-08-24T11:06:57;32.70;93.50
13464;DHT22;6804;48.774;9.174;2023-08-24T11:09:25;32.80;93.60
13464;DHT22;6804;48.774;9.174;2023-08-24T11:12:01;32.70;93.80
13464;DHT22;6804;48.774;9.174;2023-08-24T11:14:48;32.80;93.80
13464;DHT22;6804;48.774;9.174;2023-08-24T11:17:21;33.10;93.70
13464;DHT22;6804;48.774;9.174;2023-08-24T11:19:51;32.90;93.40
13464;DHT22;6804;48.774;9.174;2023-08-24T11:22:25;32.60;94.10
13464;DHT22;6804;48.774;9.174;2023-08-24T11:24:53;32.60;93.90
13464;DHT22;6804;48.774;9.174;2023-08-24T11:27:22;32.20;94.50
13464;DHT22;6804;48.774;9.174;2023-08-24T11:29:59;31.90;95.10
13464;DHT22;6804;48.774;9.174;2023-08-24T11:32:28;31.80;95.20
13464;DHT22;6804;48.774;9.174;2023-08-24T11:35:00;31.70;95.30
13464;DHT22;6804;48.774;9.174;2023-08-24T11:37:30;31.70;95.30
13464;DHT22;6804;48.774;9.174;2023-08-24T11:39:59;31.60;95.60
13464;DHT22;6804;48.774;9.174;2023-08-24T11:42:38;31.60;95.70
13464;DHT22;6804;48.774;9.174;2023-08-24T11:45:11;31.70;95.40
13464;DHT22;6804;48.774;9.174;2023-08-24T11:47:41;31.90;95.80
13464;DHT22;6804;48.774;9.174;2023-08-24T11:50:10;32.30;95.40
13464;DHT22;6804;48.774;9.174;2023-08-24T11:52:39;32.20;95.10
13464;DHT22;6804;48.774;9.174;2023-08-24T11:55:11;32.50;95.20
13464;DHT22;6804;48.774;9.174;2023-08-24T11:57:42;32.80;94.50
13464;DHT22;6804;48.774;9.174;2023-08-24T12:00:11;32.80;94.20
13464;DHT22;6804;48.774;9.174;2023-08-24T12:02:41;32.50;94.50
13464;DHT22;6804;48.774;9.174;2023-08-24T12:05:22;32.30;94.90
13464;DHT22;6804;48.774;9.174;2023-08-24T12:07:52;32.20;95.20
13464;DHT22;6804;48.774;9.174;2023-08-24T12:10:27;32.50;95.20
13464;DHT22;6804;48.774;9.174;2023-08-24T12:13:02;32.80;94.70
13464;DHT22;6804;48.774;9.174;2023-08-24T12:15:37;33.20;93.70
13464;DHT22;6804;48.774;9.174;2023-08-24T12:18:10;33.40;93.40
13464;DHT22;6804;48.774;9.174;2023-08-24T12:20:40;33.70;93.40
13464;DHT22;6804;48.774;9.174;2023-08-24T12:23:11;33.80;93.10
13464;DHT22;6804;48.774;9.174;2023-08-24T12:25:42;33.40;92.70
13464;DHT22;6804;48.774;9.174;2023-08-24T12:28:15;33.30;93.60
13464;DHT22;6804;48.774;9.174;2023-08-24T12:30:52;33.40;93.30
13464;DHT22;6804;48.774;9.174;2023-08-24T12:33:28;33.60;92.60
13464;DHT22;6804;48.774;9.174;2023-08-24T12:35:58;33.70;92.90
13464;DHT22;6804;48.774;9.174;2023-08-24T12:38:27;34.00;92.40
13464;DHT22;6804;48.774;9.174;2023-08-24T12:40:59;34.20;91.90
13464;DHT22;6804;48.774;9.174;2023-08-24T12:43:30;34.10;91.90
13464;DHT22;6804;48.774;9.174;2023-08-24T12:45:58;33.90;92.10
13464;DHT22;6804;48.774;9.174;2023-08-24T12:48:28;33.80;92.00
13464;DHT22;6804;48.774;9.174;2023-08-24T12:50:58;33.60;92.40
13464;DHT22;6804;48.774;9.174;2023-08-24T12:53:28;33.30;92.50
13464;DHT22;6804;48.774;9.174;2023-08-24T12:55:59;33.20;93.00
13464;DHT22;6804;48.774;9.174;2023-08-24T12:58:27;33.40;93.10
13464;DHT22;6804;48.774;9.174;2023-08-24T13:00:57;33.70;92.80
13464;DHT22;6804;48.774;9.174;2023-08-24T13:03:25;34.10;92.10
13464;DHT22;6804;48.774;9.174;2023-08-24T13:05:57;34.20;91.30
13464;DHT22;6804;48.774;9.174;2023-08-24T13:08:25;34.40;91.00
13464;DHT22;6804;48.774;9.174;2023-08-24T13:10:55;34.60;90.80
13464;DHT22;6804;48.774;9.174;2023-08-24T13:13:24;34.70;90.70
13464;DHT22;6804;48.774;9.174;2023-08-24T13:15:53;34.90;90.50
13464;DHT22;6804;48.774;9.174;2023-08-24T13:18:21;34.30;90.30
13464;DHT22;6804;48.774;9.174;2023-08-24T13:20:49;34.30;90.70
13464;DHT22;6804;48.774;9.174;2023-08-24T13:23:20;34.20;91.00
13464;DHT22;6804;48.774;9.174;2023-08-24T13:25:49;34.20;90.80
13464;DHT22;6804;48.774;9.174;2023-08-24T13:28:21;34.10;91.00
13464;DHT22;6804;48.774;9.174;2023-08-24T13:30:50;34.20;91.00
13464;DHT22;6804;48.774;9.174;2023-08-24T13:33:21;34.40;90.70
13464;DHT22;6804;48.774;9.174;2023-08-24T13:35:49;34.20;90.50
13464;DHT22;6804;48.774;9.174;2023-08-24T13:38:21;34.00;90.80
13464;DHT22;6804;48.774;9.174;2023-08-24T13:40:51;33.90;90.80
13464;DHT22;6804;48.774;9.174;2023-08-24T13:43:20;33.90;90.80
13464;DHT22;6804;48.774;9.174;2023-08-24T13:45:51;34.10;90.70
13464;DHT22;6804;48.774;9.174;2023-08-24T13:48:19;34.30;90.40
13464;DHT22;6804;48.774;9.174;2023-08-24T13:50:50;34.20;90.10
13464;DHT22;6804;48.774;9.174;2023-08-24T13:53:21;34.10;90.50
13464;DHT22;6804;48.774;9.174;2023-08-24T13:55:51;34.30;90.50
13464;DHT22;6804;48.774;9.174;2023-08-24T13:58:20;34.60;88.80
13464;DHT22;6804;48.774;9.174;2023-08-24T14:00:55;34.80;86.70
13464;DHT22;6804;48.774;9.174;2023-08-24T14:03:23;35.00;86.40
13464;DHT22;6804;48.774;9.174;2023-08-24T14:05:55;35.20;85.40
13464;DHT22;6804;48.774;9.174;2023-08-24T14:08:25;35.30;84.90
13464;DHT22;6804;48.774;9.174;2023-08-24T14:10:53;35.50;84.00
13464;DHT22;6804;48.774;9.174;2023-08-24T14:13:21;35.40;82.40
13464;DHT22;6804;48.774;9.174;2023-08-24T14:15:51;35.40;82.40
13464;DHT22;6804;48.774;9.174;2023-08-24T14:18:22;35.40;81.60
13464;DHT22;6804;48.774;9.174;2023-08-24T14:20:52;35.40;81.20
13464;DHT22;6804;48.774;9.174;2023-08-24T14:23:24;35.30;80.70
13464;DHT22;6804;48.774;9.174;2023-08-24T14:25:52;35.20;80.80
13464;DHT22;6804;48.774;9.174;2023-08-24T14:28:21;35.20;80.80
13464;DHT22;6804;48.774;9.174;2023-08-24T14:30:50;35.10;80.30
13464;DHT22;6804;48.774;9.174;2023-08-24T14:33:21;35.00;79.90
13464;DHT22;6804;48.774;9.174;2023-08-24T14:35:56;34.90;79.90
13464;DHT22;6804;48.774;9.174;2023-08-24T14:38:25;34.80;79.90
13464;DHT22;6804;48.774;9.174;2023-08-24T14:40:53;34.70;80.40
13464;DHT22;6804;48.774;9.174;2023-08-24T14:43:23;34.60;80.70
13464;DHT22;6804;48.774;9.174;2023-08-24T14:45:53;34.50;80.90
13464;DHT22;6804;48.774;9.174;2023-08-24T14:48:22;34.50;81.60
13464;DHT22;6804;48.774;9.174;2023-08-24T14:50:53;34.40;82.10
13464;DHT22;6804;48.774;9.174;2023-08-24T14:53:21;34.30;82.40
13464;DHT22;6804;48.774;9.174;2023-08-24T14:55:53;34.20;82.70
13464;DHT22;6804;48.774;9.174;2023-08-24T14:58:24;34.10;83.40
13464;DHT22;6804;48.774;9.174;2023-08-24T15:00:53;33.90;85.10
13464;DHT22;6804;48.774;9.174;2023-08-24T15:03:23;33.50;92.50
13464;DHT22;6804;48.774;9.174;2023-08-24T15:05:58;33.10;93.60
13464;DHT22;6804;48.774;9.174;2023-08-24T15:08:30;32.70;94.90
13464;DHT22;6804;48.774;9.174;2023-08-24T15:11:03;32.10;96.60
13464;DHT22;6804;48.774;9.174;2023-08-24T15:13:32;31.70;97.80
13464;DHT22;6804;48.774;9.174;2023-08-24T15:16:05;31.20;98.20
13464;DHT22;6804;48.774;9.174;2023-08-24T15:18:35;30.50;98.70
13464;DHT22;6804;48.774;9.174;2023-08-24T15:21:03;29.90;99.70
13464;DHT22;6804;48.774;9.174;2023-08-24T15:23:32;29.40;99.90
13464;DHT22;6804;48.774;9.174;2023-08-24T15:26:02;29.00;99.90
13464;DHT22;6804;48.774;9.174;2023-08-24T15:28:36;28.80;99.90
13464;DHT22;6804;48.774;9.174;2023-08-24T15:31:06;28.60;99.90
13464;DHT22;6804;48.774;9.174;2023-08-24T15:33:52;28.50;99.90
13464;DHT22;6804;48.774;9.174;2023-08-24T15:36:23;28.50;99.90
13464;DHT22;6804;48.774;9.174;2023-08-24T15:38:51;28.50;99.90
13464;DHT22;6804;48.774;9.174;2023-08-24T15:41:24;28.30;99.90
13464;DHT22;6804;48.774;9.174;2023-08-24T15:43:55;27.90;99.90
13464;DHT22;6804;48.774;9.174;2023-08-24T15:46:24;27.90;99.90
13464;DHT22;6804;48.774;9.174;2023-08-24T15:48:57;27.90;99.90
13464;DHT22;6804;48.774;9.174;2023-08-24T15:51:30;28.00;99.90
13464;DHT22;6804;48.774;9.174;2023-08-24T15:53:59;28.10;99.90
13464;DHT22;6804;48.774;9.174;2023-08-24T15:56:34;28.20;99.90
13464;DHT22;6804;48.774;9.174;2023-08-24T15:59:04;28.20;99.90
13464;DHT22;6804;48.774;9.174;2023-08-24T16:01:34;28.30;99.90
13464;DHT22;6804;48.774;9.174;2023-08-24T16:04:04;28.30;99.90
13464;DHT22;6804;48.774;9.174;2023-08-24T16:06:33;28.40;99.90